Time;durP1;ratioP1;P1;durP2;ratioP2;P2;SDS_P1;SDS_P2;PMS_P1;PMS_P2;Temp;Humidity;BMP_temperature;BMP_pressure;BME280_temperature;BME280_humidity;BME280_pressure;Samples;Min_cycle;Max_cycle;Signal;HPM_P1;HPM_P2
2023/07/29 00:02:20;;;;;;;5.15;2.10;;;;;;;;;;5014293;28;25085;-70
2023/07/29 00:04:46;;;;;;;4.65;2.10;;;;;;;;;;4999780;28;25065;-70
2023/07/29 00:07:12;;;;;;;5.57;2.70;;;;;;;;;;5006254;28;25055;-68
2023/07/29 00:09:38;;;;;;;7.32;2.47;;;;;;;;;;5003537;28;25156;-69
2023/07/29 00:12:04;;;;;;;8.20;2.53;;;;;;;;;;5012160;28;25162;-68
2023/07/29 00:14:30;;;;;;;8.35;2.80;;;;;;;;;;5012543;28;25148;-69
2023/07/29 00:16:56;;;;;;;4.57;3.20;;;;;;;;;;5008701;28;25144;-68
2023/07/29 00:19:23;;;;;;;5.57;2.00;;;;;;;;;;5011640;28;25093;-68
2023/07/29 00:21:49;;;;;;;7.50;2.58;;;;;;;;;;5004667;28;25060;-67
2023/07/29 00:24:15;;;;;;;6.90;2.50;;;;;;;;;;5001109;28;25064;-69
2023/07/29 00:26:41;;;;;;;6.63;3.35;;;;;;;;;;5011474;28;25070;-69
2023/07/29 00:29:07;;;;;;;6.68;2.15;;;;;;;;;;5007154;28;25078;-70
2023/07/29 00:31:33;;;;;;;5.30;2.60;;;;;;;;;;5015900;28;25071;-68
2023/07/29 00:33:59;;;;;;;6.50;2.85;;;;;;;;;;5013871;28;25073;-69
2023/07/29 00:36:25;;;;;;;8.02;3.17;;;;;;;;;;5012649;28;25074;-70
2023/07/29 00:38:52;;;;;;;3.42;2.50;;;;;;;;;;5002323;28;25164;-69
2023/07/29 00:41:19;;;;;;;7.35;3.47;;;;;;;;;;5005087;28;25068;-72
2023/07/29 00:43:45;;;;;;;6.35;3.10;;;;;;;;;;5000747;28;25083;-73
2023/07/29 00:46:12;;;;;;;10.00;3.38;;;;;;;;;;5018317;28;25099;-68
2023/07/29 00:48:39;;;;;;;9.30;4.25;;;;;;;;;;5006861;28;25093;-70
2023/07/29 00:51:05;;;;;;;7.97;3.08;;;;;;;;;;5003175;28;25066;-71
2023/07/29 00:53:31;;;;;;;5.57;2.70;;;;;;;;;;4995572;28;25171;-70
2023/07/29 00:55:57;;;;;;;5.43;2.60;;;;;;;;;;5011606;28;25076;-70
2023/07/29 00:58:23;;;;;;;5.05;2.63;;;;;;;;;;5002101;28;25106;-72
2023/07/29 01:00:50;;;;;;;4.90;2.72;;;;;;;;;;5004673;28;25111;-71
2023/07/29 01:03:17;;;;;;;4.70;2.75;;;;;;;;;;5006937;28;25080;-69
2023/07/29 01:05:57;;;;;;;6.97;2.63;;;;;;;;;;4994278;28;25074;-73
2023/07/29 01:08:29;;;;;;;6.03;2.83;;;;;;;;;;5004956;28;25058;-71
2023/07/29 01:11:02;;;;;;;3.10;2.40;;;;;;;;;;5010742;28;25062;-70
2023/07/29 01:13:46;;;;;;;3.90;2.17;;;;;;;;;;5004388;28;25061;-70
2023/07/29 01:16:17;;;;;;;8.18;2.67;;;;;;;;;;5017466;28;25101;-72
2023/07/29 01:18:44;;;;;;;2.47;2.03;;;;;;;;;;5002063;28;25066;-68
2023/07/29 01:21:11;;;;;;;5.00;2.35;;;;;;;;;;5006805;28;25163;-68
2023/07/29 01:23:37;;;;;;;3.50;2.40;;;;;;;;;;5011073;28;25085;-69
2023/07/29 01:26:04;;;;;;;2.42;2.03;;;;;;;;;;5008377;28;25146;-67
2023/07/29 01:28:31;;;;;;;5.03;2.08;;;;;;;;;;5008457;28;25062;-69
2023/07/29 01:31:03;;;;;;;3.15;1.55;;;;;;;;;;5002800;28;25056;-71
2023/07/29 01:33:29;;;;;;;;;;;;;;;;;;4998076;28;25057;-71
2023/07/29 01:36:02;;;;;;;4.35;1.63;;;;;;;;;;5000673;28;25104;-70
2023/07/29 01:38:34;;;;;;;3.55;1.85;;;;;;;;;;5000717;28;25051;-68
2023/07/29 01:41:04;;;;;;;2.78;1.60;;;;;;;;;;4996385;28;25191;-69
2023/07/29 01:43:30;;;;;;;1.95;1.63;;;;;;;;;;4995114;28;25065;-68
2023/07/29 01:45:57;;;;;;;2.95;1.90;;;;;;;;;;4994847;28;25056;-69
2023/07/29 01:48:23;;;;;;;2.75;1.80;;;;;;;;;;5007046;28;25061;-70
2023/07/29 01:50:49;;;;;;;3.17;1.92;;;;;;;;;;5006993;28;25091;-71
2023/07/29 01:53:15;;;;;;;2.92;1.73;;;;;;;;;;4998162;28;25095;-69
2023/07/29 01:55:41;;;;;;;4.45;1.85;;;;;;;;;;5012424;28;25053;-69
2023/07/29 01:58:07;;;;;;;4.03;2.35;;;;;;;;;;5002934;28;25064;-70
2023/07/29 02:00:33;;;;;;;2.50;1.70;;;;;;;;;;5006101;28;25069;-69
2023/07/29 02:02:59;;;;;;;3.88;2.28;;;;;;;;;;5004958;28;25094;-67
2023/07/29 02:05:25;;;;;;;3.45;1.90;;;;;;;;;;5003111;28;25052;-69
2023/07/29 02:07:51;;;;;;;3.42;2.10;;;;;;;;;;5010875;28;25062;-72
2023/07/29 02:10:17;;;;;;;3.13;2.00;;;;;;;;;;5007994;28;25049;-73
2023/07/29 02:12:43;;;;;;;2.92;2.15;;;;;;;;;;5004824;28;25050;-74
2023/07/29 02:15:09;;;;;;;3.30;1.73;;;;;;;;;;5010730;28;25138;-70
2023/07/29 02:17:35;;;;;;;6.95;1.77;;;;;;;;;;5002684;28;25046;-70
2023/07/29 02:20:01;;;;;;;2.05;1.65;;;;;;;;;;5002748;28;25066;-72
2023/07/29 02:22:27;;;;;;;1.77;1.55;;;;;;;;;;4996994;28;25073;-68
2023/07/29 02:24:53;;;;;;;7.25;1.92;;;;;;;;;;5011285;28;25099;-69
2023/07/29 02:27:19;;;;;;;3.03;1.67;;;;;;;;;;5005914;28;25047;-69
2023/07/29 02:29:45;;;;;;;4.47;1.65;;;;;;;;;;5007957;28;25071;-68
2023/07/29 02:32:11;;;;;;;2.63;1.60;;;;;;;;;;5021802;28;25105;-69
2023/07/29 02:34:36;;;;;;;2.72;1.60;;;;;;;;;;5009497;28;25066;-69
2023/07/29 02:37:02;;;;;;;2.20;1.80;;;;;;;;;;4998481;28;25062;-68
2023/07/29 02:39:28;;;;;;;3.42;1.88;;;;;;;;;;5021326;28;25114;-70
2023/07/29 02:41:55;;;;;;;2.30;2.05;;;;;;;;;;5012878;28;25108;-70
2023/07/29 02:44:21;;;;;;;2.35;1.40;;;;;;;;;;5009478;28;25061;-70
2023/07/29 02:46:47;;;;;;;2.83;1.92;;;;;;;;;;5011517;28;25065;-70
2023/07/29 02:49:13;;;;;;;2.85;1.42;;;;;;;;;;5008530;28;25073;-70
2023/07/29 02:51:39;;;;;;;2.15;1.70;;;;;;;;;;5014140;28;25079;-71
2023/07/29 02:54:05;;;;;;;2.30;1.73;;;;;;;;;;5006642;28;25063;-69
2023/07/29 02:56:31;;;;;;;5.03;1.85;;;;;;;;;;5006081;28;25066;-70
2023/07/29 02:58:57;;;;;;;3.75;1.55;;;;;;;;;;5012038;28;25136;-70
2023/07/29 03:01:25;;;;;;;3.13;1.90;;;;;;;;;;5004507;28;25073;-70
2023/07/29 03:03:51;;;;;;;3.92;1.60;;;;;;;;;;5008394;28;25078;-72
2023/07/29 03:06:17;;;;;;;2.10;1.70;;;;;;;;;;4997977;28;25074;-70
2023/07/29 03:08:43;;;;;;;2.65;1.80;;;;;;;;;;5015083;28;25071;-75
2023/07/29 03:11:13;;;;;;;3.45;1.83;;;;;;;;;;5016947;28;25152;-69
2023/07/29 03:13:39;;;;;;;4.10;2.05;;;;;;;;;;5007571;28;25068;-71
2023/07/29 03:16:08;;;;;;;3.60;1.65;;;;;;;;;;5009197;28;25085;-71
2023/07/29 03:18:34;;;;;;;3.00;2.03;;;;;;;;;;5011855;28;25064;-70
2023/07/29 03:21:00;;;;;;;3.25;2.33;;;;;;;;;;5008029;28;25066;-69
2023/07/29 03:23:27;;;;;;;4.10;2.22;;;;;;;;;;5013910;28;25082;-69
2023/07/29 03:25:56;;;;;;;5.15;2.65;;;;;;;;;;5009720;28;25073;-71
2023/07/29 03:28:32;;;;;;;2.05;1.85;;;;;;;;;;5005440;28;25138;-71
2023/07/29 03:30:59;;;;;;;2.70;1.98;;;;;;;;;;5013844;28;25592;-71
2023/07/29 03:33:25;;;;;;;4.05;2.40;;;;;;;;;;5007359;28;25059;-71
2023/07/29 03:35:51;;;;;;;4.60;2.42;;;;;;;;;;5014405;28;25066;-70
2023/07/29 03:38:17;;;;;;;3.83;2.30;;;;;;;;;;5018128;28;25114;-69
2023/07/29 03:40:44;;;;;;;6.53;2.80;;;;;;;;;;5009644;28;25083;-71
2023/07/29 03:43:10;;;;;;;5.10;2.60;;;;;;;;;;5005099;28;25055;-67
2023/07/29 03:45:36;;;;;;;5.65;3.15;;;;;;;;;;5015986;28;25109;-68
2023/07/29 03:48:02;;;;;;;4.82;2.90;;;;;;;;;;5008993;28;25093;-67
2023/07/29 03:50:29;;;;;;;5.80;2.63;;;;;;;;;;5006752;28;25069;-68
2023/07/29 03:52:55;;;;;;;3.65;2.70;;;;;;;;;;5025922;28;25072;-67
2023/07/29 03:55:21;;;;;;;3.75;3.00;;;;;;;;;;5016421;28;25078;-68
2023/07/29 03:57:47;;;;;;;6.93;3.33;;;;;;;;;;5022105;28;25119;-67
2023/07/29 04:00:13;;;;;;;5.43;3.47;;;;;;;;;;5014010;28;25143;-69
2023/07/29 04:02:40;;;;;;;3.55;2.80;;;;;;;;;;5014880;28;25080;-68
2023/07/29 04:05:08;;;;;;;8.15;2.97;;;;;;;;;;5014265;28;25071;-68
2023/07/29 04:07:34;;;;;;;6.22;3.17;;;;;;;;;;5003484;28;25080;-68
2023/07/29 04:10:00;;;;;;;6.53;2.72;;;;;;;;;;5007361;28;25053;-66
2023/07/29 04:12:27;;;;;;;8.35;3.30;;;;;;;;;;5007183;28;25064;-68
2023/07/29 04:14:53;;;;;;;4.53;3.13;;;;;;;;;;5008686;28;25059;-67
2023/07/29 04:17:19;;;;;;;4.32;2.42;;;;;;;;;;5009388;28;25062;-68
2023/07/29 04:19:45;;;;;;;6.22;3.38;;;;;;;;;;5007392;28;25106;-68
2023/07/29 04:22:11;;;;;;;6.97;3.33;;;;;;;;;;5012619;28;25051;-67
2023/07/29 04:24:38;;;;;;;6.88;2.92;;;;;;;;;;5016525;28;25065;-68
2023/07/29 04:27:04;;;;;;;7.60;3.17;;;;;;;;;;5014269;28;25077;-69
2023/07/29 04:29:30;;;;;;;6.70;3.72;;;;;;;;;;5007143;28;25071;-71
2023/07/29 04:31:56;;;;;;;6.60;3.25;;;;;;;;;;5009391;28;25137;-70
2023/07/29 04:34:22;;;;;;;5.40;3.40;;;;;;;;;;5007429;28;25158;-69
2023/07/29 04:36:48;;;;;;;5.35;3.35;;;;;;;;;;5013399;28;25113;-70
2023/07/29 04:39:14;;;;;;;7.38;3.38;;;;;;;;;;4996338;28;25061;-70
2023/07/29 04:41:40;;;;;;;10.27;3.38;;;;;;;;;;5009520;28;25089;-71
2023/07/29 04:44:07;;;;;;;6.20;3.35;;;;;;;;;;5013746;28;25069;-68
2023/07/29 04:46:33;;;;;;;5.60;3.70;;;;;;;;;;5004275;28;25100;-67
2023/07/29 04:48:59;;;;;;;8.85;3.63;;;;;;;;;;5008666;28;25096;-68
2023/07/29 04:51:25;;;;;;;4.47;3.47;;;;;;;;;;5009859;28;25096;-70
2023/07/29 04:53:51;;;;;;;6.80;4.10;;;;;;;;;;5005021;28;25071;-70
2023/07/29 04:56:17;;;;;;;5.95;3.30;;;;;;;;;;5007066;28;25121;-70
2023/07/29 04:58:43;;;;;;;8.48;3.60;;;;;;;;;;5000102;28;25070;-73
2023/07/29 05:01:09;;;;;;;7.45;4.07;;;;;;;;;;5003757;28;25092;-72
2023/07/29 05:03:35;;;;;;;5.63;4.13;;;;;;;;;;4996548;28;25142;-70
2023/07/29 05:06:01;;;;;;;9.07;4.30;;;;;;;;;;5008032;28;25094;-73
2023/07/29 05:08:27;;;;;;;6.22;4.10;;;;;;;;;;5011425;28;25135;-69
2023/07/29 05:10:57;;;;;;;11.15;5.00;;;;;;;;;;5013142;28;25100;-68
2023/07/29 05:13:23;;;;;;;6.25;3.97;;;;;;;;;;5013988;28;25100;-69
2023/07/29 05:15:49;;;;;;;9.68;4.35;;;;;;;;;;5007793;28;25076;-68
2023/07/29 05:18:15;;;;;;;5.80;3.88;;;;;;;;;;5030453;28;25074;-70
2023/07/29 05:20:41;;;;;;;6.80;3.42;;;;;;;;;;5034007;28;25085;-72
2023/07/29 05:23:07;;;;;;;5.97;3.83;;;;;;;;;;5011431;28;25055;-69
2023/07/29 05:25:34;;;;;;;9.57;3.80;;;;;;;;;;5010015;28;25143;-69
2023/07/29 05:28:00;;;;;;;10.85;4.28;;;;;;;;;;5007950;28;25062;-70
2023/07/29 05:30:30;;;;;;;6.72;4.30;;;;;;;;;;5006850;28;25112;-71
2023/07/29 05:32:56;;;;;;;10.57;4.85;;;;;;;;;;5007008;28;25113;-71
2023/07/29 05:35:22;;;;;;;8.85;4.47;;;;;;;;;;5006821;28;25104;-68
2023/07/29 05:37:48;;;;;;;7.30;4.00;;;;;;;;;;5007306;28;25088;-68
2023/07/29 05:40:15;;;;;;;7.18;4.15;;;;;;;;;;5015175;28;25072;-67
2023/07/29 05:42:41;;;;;;;11.38;4.50;;;;;;;;;;5002651;28;25066;-68
2023/07/29 05:45:08;;;;;;;6.28;4.20;;;;;;;;;;5007364;28;25075;-68
2023/07/29 05:47:34;;;;;;;6.60;3.92;;;;;;;;;;5007304;28;25058;-67
2023/07/29 05:50:04;;;;;;;8.90;4.25;;;;;;;;;;4996627;28;25083;-68
2023/07/29 05:52:30;;;;;;;7.82;4.13;;;;;;;;;;5011938;28;25070;-68
2023/07/29 05:54:56;;;;;;;7.68;4.35;;;;;;;;;;4999572;28;25111;-67
2023/07/29 05:57:22;;;;;;;8.50;4.35;;;;;;;;;;4999482;28;25127;-68
2023/07/29 05:59:48;;;;;;;6.25;4.50;;;;;;;;;;5005407;28;25070;-69
2023/07/29 06:02:14;;;;;;;8.32;4.60;;;;;;;;;;5014705;28;25150;-68
2023/07/29 06:04:40;;;;;;;7.38;4.15;;;;;;;;;;5003325;28;25065;-68
2023/07/29 06:07:06;;;;;;;5.90;4.82;;;;;;;;;;5003986;28;25047;-69
2023/07/29 06:09:32;;;;;;;8.45;4.88;;;;;;;;;;5007346;28;25085;-68
2023/07/29 06:11:58;;;;;;;7.53;4.13;;;;;;;;;;5006870;28;25075;-69
2023/07/29 06:14:24;;;;;;;9.38;4.75;;;;;;;;;;5005538;28;25100;-68
2023/07/29 06:16:50;;;;;;;7.60;4.88;;;;;;;;;;4999442;28;25073;-68
2023/07/29 06:19:16;;;;;;;9.10;4.22;;;;;;;;;;5003980;28;25078;-68
2023/07/29 06:21:42;;;;;;;5.63;4.65;;;;;;;;;;4997179;28;25074;-67
2023/07/29 06:24:08;;;;;;;8.25;3.70;;;;;;;;;;5000618;28;25078;-68
2023/07/29 06:26:34;;;;;;;11.57;4.43;;;;;;;;;;5006805;28;25100;-67
2023/07/29 06:29:00;;;;;;;5.22;3.90;;;;;;;;;;5010453;28;25138;-68
2023/07/29 06:31:26;;;;;;;5.22;3.90;;;;;;;;;;5008882;28;25002;-68
2023/07/29 06:33:52;;;;;;;5.75;4.03;;;;;;;;;;5001981;28;25123;-68
2023/07/29 06:36:18;;;;;;;5.38;4.05;;;;;;;;;;4998687;28;25069;-69
2023/07/29 06:38:44;;;;;;;9.60;5.15;;;;;;;;;;5003791;28;25055;-67
2023/07/29 06:41:10;;;;;;;6.65;3.92;;;;;;;;;;5000508;28;25163;-68
2023/07/29 06:43:36;;;;;;;6.10;4.53;;;;;;;;;;5007641;28;25095;-68
2023/07/29 06:46:02;;;;;;;9.32;4.20;;;;;;;;;;5001335;28;25075;-69
2023/07/29 06:48:28;;;;;;;11.63;4.00;;;;;;;;;;5000940;28;25085;-66
2023/07/29 06:50:55;;;;;;;7.38;3.70;;;;;;;;;;5003744;28;25097;-68
2023/07/29 06:53:21;;;;;;;5.40;3.42;;;;;;;;;;4999795;28;25053;-69
2023/07/29 06:55:47;;;;;;;5.30;3.47;;;;;;;;;;5005532;28;25046;-70
2023/07/29 06:58:13;;;;;;;7.60;3.58;;;;;;;;;;5003068;28;25543;-66
2023/07/29 07:00:39;;;;;;;8.50;4.30;;;;;;;;;;5003303;28;25049;-67
2023/07/29 07:03:05;;;;;;;5.47;3.08;;;;;;;;;;5006453;28;25064;-68
2023/07/29 07:05:31;;;;;;;5.13;2.88;;;;;;;;;;5005041;28;25095;-67
2023/07/29 07:07:57;;;;;;;4.57;3.15;;;;;;;;;;5012218;28;25083;-67
2023/07/29 07:10:23;;;;;;;7.00;3.10;;;;;;;;;;5007895;28;25066;-68
2023/07/29 07:12:48;;;;;;;9.18;3.42;;;;;;;;;;5013926;28;25045;-69
2023/07/29 07:15:14;;;;;;;5.57;2.92;;;;;;;;;;5005699;28;25072;-68
2023/07/29 07:17:41;;;;;;;6.85;3.00;;;;;;;;;;5006827;28;25067;-68
2023/07/29 07:20:07;;;;;;;6.38;2.90;;;;;;;;;;5005728;28;25063;-67
2023/07/29 07:22:33;;;;;;;10.10;4.20;;;;;;;;;;5003019;28;25077;-67
2023/07/29 07:24:59;;;;;;;5.57;4.22;;;;;;;;;;5012508;28;25158;-67
2023/07/29 07:27:25;;;;;;;7.57;4.80;;;;;;;;;;5017603;28;25053;-66
2023/07/29 07:29:51;;;;;;;8.55;4.25;;;;;;;;;;5027754;28;25085;-65
2023/07/29 07:32:17;;;;;;;6.75;4.13;;;;;;;;;;5034077;28;25105;-67
2023/07/29 07:34:43;;;;;;;6.88;4.55;;;;;;;;;;5019233;28;25084;-68
2023/07/29 07:37:09;;;;;;;10.35;4.85;;;;;;;;;;5030507;28;25057;-68
2023/07/29 07:39:35;;;;;;;6.13;4.40;;;;;;;;;;5011193;28;25068;-67
2023/07/29 07:42:01;;;;;;;5.45;4.35;;;;;;;;;;5006364;28;25081;-66
2023/07/29 07:44:27;;;;;;;6.03;3.90;;;;;;;;;;5001185;28;25067;-68
2023/07/29 07:46:53;;;;;;;6.00;4.07;;;;;;;;;;4999786;28;25163;-68
2023/07/29 07:49:19;;;;;;;6.13;3.85;;;;;;;;;;5005757;28;25076;-68
2023/07/29 07:51:45;;;;;;;6.05;3.72;;;;;;;;;;5002958;28;25090;-68
2023/07/29 07:54:11;;;;;;;4.30;3.90;;;;;;;;;;5008802;28;25094;-69
2023/07/29 07:56:37;;;;;;;6.55;4.10;;;;;;;;;;5003805;28;25056;-67
2023/07/29 07:59:03;;;;;;;5.25;3.85;;;;;;;;;;5006928;28;25067;-66
2023/07/29 08:01:35;;;;;;;6.35;3.92;;;;;;;;;;5006451;28;25078;-65
2023/07/29 08:04:01;;;;;;;10.45;3.75;;;;;;;;;;5010980;28;25102;-67
2023/07/29 08:06:27;;;;;;;6.63;3.67;;;;;;;;;;5010127;28;25159;-67
2023/07/29 08:08:53;;;;;;;4.15;3.30;;;;;;;;;;4999997;28;25117;-70
2023/07/29 08:11:19;;;;;;;5.97;3.63;;;;;;;;;;5011578;28;25047;-67
2023/07/29 08:13:45;;;;;;;5.25;3.70;;;;;;;;;;4999700;28;25096;-67
2023/07/29 08:16:11;;;;;;;5.47;3.30;;;;;;;;;;5000812;28;25073;-67
2023/07/29 08:18:37;;;;;;;4.70;3.13;;;;;;;;;;5000075;28;25061;-68
2023/07/29 08:21:03;;;;;;;5.05;3.85;;;;;;;;;;5001039;28;25092;-66
2023/07/29 08:23:30;;;;;;;18.23;3.55;;;;;;;;;;5010381;28;25071;-68
2023/07/29 08:26:01;;;;;;;10.40;3.33;;;;;;;;;;5005024;28;25103;-67
2023/07/29 08:28:27;;;;;;;5.28;3.33;;;;;;;;;;5003577;28;25094;-67
2023/07/29 08:30:53;;;;;;;3.83;3.08;;;;;;;;;;5003175;28;25119;-66
2023/07/29 08:33:19;;;;;;;3.55;3.13;;;;;;;;;;5008639;28;25142;-68
2023/07/29 08:35:45;;;;;;;3.20;2.90;;;;;;;;;;4995229;28;25060;-69
2023/07/29 08:38:11;;;;;;;4.32;2.70;;;;;;;;;;5008233;28;25095;-65
2023/07/29 08:40:39;;;;;;;6.70;2.80;;;;;;;;;;5009272;28;24986;-69
2023/07/29 08:43:05;;;;;;;6.38;3.35;;;;;;;;;;5018159;28;25085;-67
2023/07/29 08:45:34;;;;;;;3.30;2.03;;;;;;;;;;5006073;28;25077;-67
2023/07/29 08:48:03;;;;;;;3.90;2.40;;;;;;;;;;5012377;28;25134;-68
2023/07/29 08:50:30;;;;;;;2.92;2.28;;;;;;;;;;5006500;28;25062;-67
2023/07/29 08:52:56;;;;;;;3.95;1.90;;;;;;;;;;5004079;28;25156;-66
2023/07/29 08:55:22;;;;;;;6.53;2.67;;;;;;;;;;5009836;28;25109;-67
2023/07/29 08:57:48;;;;;;;5.43;2.35;;;;;;;;;;5000673;28;25069;-68
2023/07/29 09:00:15;;;;;;;5.13;2.13;;;;;;;;;;5002710;28;25067;-68
2023/07/29 09:02:41;;;;;;;2.85;2.13;;;;;;;;;;5001450;28;25060;-68
2023/07/29 09:05:07;;;;;;;2.70;2.13;;;;;;;;;;4998782;28;25122;-68
2023/07/29 09:07:34;;;;;;;3.10;2.33;;;;;;;;;;5009664;28;25046;-67
2023/07/29 09:10:00;;;;;;;2.65;2.05;;;;;;;;;;5003149;28;25084;-66
2023/07/29 09:12:26;;;;;;;3.00;2.30;;;;;;;;;;4999640;28;25094;-67
2023/07/29 09:14:54;;;;;;;3.63;2.20;;;;;;;;;;5000748;28;25080;-69
2023/07/29 09:17:22;;;;;;;3.42;2.50;;;;;;;;;;4999348;28;25075;-68
2023/07/29 09:19:51;;;;;;;6.00;2.50;;;;;;;;;;5007326;28;25064;-68
2023/07/29 09:22:20;;;;;;;5.18;3.13;;;;;;;;;;4997479;28;25134;-67
2023/07/29 09:24:46;;;;;;;2.95;2.65;;;;;;;;;;4996436;28;25060;-69
2023/07/29 09:27:28;;;;;;;3.13;2.83;;;;;;;;;;5031854;28;25089;-67
2023/07/29 09:29:54;;;;;;;2.77;2.57;;;;;;;;;;4993877;28;25075;-67
2023/07/29 09:32:21;;;;;;;3.83;2.40;;;;;;;;;;5010335;28;25177;-68
2023/07/29 09:34:47;;;;;;;3.63;2.67;;;;;;;;;;5002591;28;25067;-68
2023/07/29 09:37:32;;;;;;;4.72;3.00;;;;;;;;;;5004365;28;25071;-69
2023/07/29 09:39:58;;;;;;;3.88;2.45;;;;;;;;;;5004381;28;25146;-67
2023/07/29 09:42:24;;;;;;;3.13;2.15;;;;;;;;;;5002505;28;25097;-66
2023/07/29 09:44:50;;;;;;;1.90;1.77;;;;;;;;;;5013052;28;25066;-67
2023/07/29 09:47:21;;;;;;;2.65;2.22;;;;;;;;;;4999877;28;25075;-66
2023/07/29 09:49:47;;;;;;;1.80;1.52;;;;;;;;;;5006999;28;25100;-65
2023/07/29 09:52:14;;;;;;;3.83;1.60;;;;;;;;;;4999581;28;25084;-66
2023/07/29 09:54:40;;;;;;;1.58;1.38;;;;;;;;;;5006228;28;25095;-67
2023/07/29 09:57:07;;;;;;;1.90;1.65;;;;;;;;;;5000775;28;25172;-68
2023/07/29 09:59:36;;;;;;;2.65;1.48;;;;;;;;;;5006951;28;25073;-66
2023/07/29 10:02:02;;;;;;;5.47;1.35;;;;;;;;;;5000354;28;25092;-67
2023/07/29 10:04:29;;;;;;;3.25;1.40;;;;;;;;;;5002354;28;25100;-66
2023/07/29 10:06:55;;;;;;;3.13;1.45;;;;;;;;;;5008697;28;25136;-68
2023/07/29 10:09:21;;;;;;;2.42;1.35;;;;;;;;;;5006024;28;25160;-67
2023/07/29 10:11:49;;;;;;;1.27;1.23;;;;;;;;;;5018058;28;25104;-67
2023/07/29 10:14:16;;;;;;;1.88;1.40;;;;;;;;;;5002783;28;25047;-67
2023/07/29 10:16:44;;;;;;;2.00;1.60;;;;;;;;;;5005391;28;25050;-68
2023/07/29 10:19:12;;;;;;;3.78;1.67;;;;;;;;;;5009092;28;25077;-67
2023/07/29 10:21:40;;;;;;;1.58;1.48;;;;;;;;;;5009224;28;25077;-66
2023/07/29 10:24:08;;;;;;;1.90;1.10;;;;;;;;;;5005481;28;25053;-67
2023/07/29 10:26:36;;;;;;;2.38;1.20;;;;;;;;;;5011106;28;25064;-66
2023/07/29 10:29:04;;;;;;;3.15;1.52;;;;;;;;;;5002770;28;25056;-67
2023/07/29 10:31:30;;;;;;;1.45;1.33;;;;;;;;;;5000713;28;25149;-67
2023/07/29 10:33:56;;;;;;;1.98;1.40;;;;;;;;;;5003922;28;25079;-67
2023/07/29 10:36:22;;;;;;;1.67;1.40;;;;;;;;;;5007389;28;25057;-67
2023/07/29 10:38:48;;;;;;;1.60;1.50;;;;;;;;;;5004023;28;25069;-68
2023/07/29 10:41:14;;;;;;;1.90;1.52;;;;;;;;;;5000909;28;25082;-68
2023/07/29 10:43:40;;;;;;;1.83;1.52;;;;;;;;;;5006342;28;25071;-69
2023/07/29 10:46:19;;;;;;;7.88;2.13;;;;;;;;;;5014977;28;25156;-68
2023/07/29 10:48:45;;;;;;;3.47;2.08;;;;;;;;;;5006536;28;25090;-68
2023/07/29 10:51:26;;;;;;;3.50;1.95;;;;;;;;;;5016926;28;25082;-69
2023/07/29 10:53:53;;;;;;;4.25;2.33;;;;;;;;;;5009300;28;25118;-69
2023/07/29 10:56:27;;;;;;;3.20;2.50;;;;;;;;;;5014614;28;25107;-68
2023/07/29 10:58:53;;;;;;;4.18;2.28;;;;;;;;;;5010263;28;25086;-68
2023/07/29 11:01:29;;;;;;;6.88;3.05;;;;;;;;;;5007837;28;25094;-68
2023/07/29 11:04:02;;;;;;;4.05;2.40;;;;;;;;;;5000158;28;25159;-68
2023/07/29 11:06:28;;;;;;;5.60;2.17;;;;;;;;;;5011166;28;25136;-67
2023/07/29 11:08:54;;;;;;;4.55;2.95;;;;;;;;;;5005216;28;25068;-68
2023/07/29 11:11:19;;;;;;;7.15;2.90;;;;;;;;;;5007544;28;25044;-68
2023/07/29 11:13:46;;;;;;;4.75;2.97;;;;;;;;;;5011996;28;25104;-71
2023/07/29 11:16:15;;;;;;;3.00;2.67;;;;;;;;;;5008158;28;25147;-69
2023/07/29 11:18:42;;;;;;;6.10;2.75;;;;;;;;;;5011749;28;25060;-68
2023/07/29 11:21:08;;;;;;;5.47;2.53;;;;;;;;;;5012080;28;25102;-68
2023/07/29 11:23:35;;;;;;;3.33;2.08;;;;;;;;;;5016341;28;25101;-68
2023/07/29 11:26:02;;;;;;;5.68;2.47;;;;;;;;;;5006311;28;25048;-68
2023/07/29 11:28:28;;;;;;;4.13;2.20;;;;;;;;;;5010133;28;25121;-67
2023/07/29 11:30:55;;;;;;;2.80;2.58;;;;;;;;;;5017471;28;25072;-69
2023/07/29 11:33:25;;;;;;;3.92;1.95;;;;;;;;;;5006523;28;25054;-69
2023/07/29 11:35:51;;;;;;;2.65;2.45;;;;;;;;;;5009707;28;25055;-68
2023/07/29 11:38:20;;;;;;;4.15;3.50;;;;;;;;;;5015820;28;25056;-68
2023/07/29 11:41:15;;;;;;;4.88;2.78;;;;;;;;;;5003044;28;25078;-69
2023/07/29 11:43:41;;;;;;;4.07;3.17;;;;;;;;;;4999237;28;25056;-68
2023/07/29 11:46:07;;;;;;;2.67;2.45;;;;;;;;;;5005932;28;25069;-68
2023/07/29 11:48:34;;;;;;;1.90;1.80;;;;;;;;;;5007891;28;25145;-69
2023/07/29 11:51:00;;;;;;;3.90;2.05;;;;;;;;;;5017477;28;25075;-66
2023/07/29 11:53:28;;;;;;;2.15;1.70;;;;;;;;;;5003292;28;25064;-69
2023/07/29 11:55:54;;;;;;;3.97;2.35;;;;;;;;;;5008436;28;25114;-67
2023/07/29 11:58:21;;;;;;;4.18;2.10;;;;;;;;;;5006489;28;25169;-67
2023/07/29 12:00:47;;;;;;;2.85;2.13;;;;;;;;;;5011823;28;25126;-68
2023/07/29 12:03:15;;;;;;;4.15;2.63;;;;;;;;;;5002235;28;25073;-67
2023/07/29 12:05:41;;;;;;;3.60;2.20;;;;;;;;;;5012651;28;25118;-68
2023/07/29 12:08:09;;;;;;;6.47;2.97;;;;;;;;;;5003150;28;25081;-66
2023/07/29 12:10:35;;;;;;;3.80;2.42;;;;;;;;;;5015861;28;25154;-66
2023/07/29 12:13:03;;;;;;;2.70;2.45;;;;;;;;;;5001871;28;25143;-67
2023/07/29 12:15:29;;;;;;;2.97;2.13;;;;;;;;;;5014949;28;25068;-66
2023/07/29 12:17:59;;;;;;;3.63;2.72;;;;;;;;;;5017303;28;25089;-68
2023/07/29 12:20:26;;;;;;;3.88;2.60;;;;;;;;;;5010669;28;25092;-69
2023/07/29 12:22:53;;;;;;;3.35;2.47;;;;;;;;;;5016194;28;25085;-68
2023/07/29 12:25:19;;;;;;;3.25;2.17;;;;;;;;;;5011135;28;25072;-69
2023/07/29 12:27:45;;;;;;;4.18;2.50;;;;;;;;;;5001752;28;25075;-69
2023/07/29 12:30:11;;;;;;;2.47;2.28;;;;;;;;;;5006848;28;25172;-67
2023/07/29 12:32:44;;;;;;;3.25;2.17;;;;;;;;;;5011267;28;25083;-67
2023/07/29 12:35:10;;;;;;;5.85;2.42;;;;;;;;;;5012160;28;25170;-67
2023/07/29 12:37:38;;;;;;;2.45;2.20;;;;;;;;;;5009023;28;25088;-67
2023/07/29 12:40:04;;;;;;;5.35;2.20;;;;;;;;;;5008256;28;25124;-67
2023/07/29 12:42:30;;;;;;;3.55;1.90;;;;;;;;;;5007709;28;25077;-66
2023/07/29 12:44:56;;;;;;;4.97;2.35;;;;;;;;;;5008616;28;26196;-67
2023/07/29 12:47:22;;;;;;;3.88;2.40;;;;;;;;;;5014332;28;25120;-67
2023/07/29 12:49:48;;;;;;;2.78;2.00;;;;;;;;;;5007741;28;25071;-66
2023/07/29 12:52:14;;;;;;;4.57;2.47;;;;;;;;;;5005896;28;25161;-66
2023/07/29 12:54:44;;;;;;;2.55;1.90;;;;;;;;;;5013243;28;25054;-67
2023/07/29 12:57:09;;;;;;;2.55;1.77;;;;;;;;;;5007285;28;25059;-67
2023/07/29 12:59:35;;;;;;;4.65;1.80;;;;;;;;;;5013665;28;25142;-66
2023/07/29 13:02:01;;;;;;;1.98;1.45;;;;;;;;;;5015463;28;25059;-67
2023/07/29 13:04:27;;;;;;;2.08;1.80;;;;;;;;;;5006253;28;25089;-69
2023/07/29 13:06:53;;;;;;;3.38;1.75;;;;;;;;;;5019594;28;25067;-67
2023/07/29 13:09:19;;;;;;;2.78;1.27;;;;;;;;;;5008703;28;25101;-66
2023/07/29 13:11:45;;;;;;;4.30;1.25;;;;;;;;;;5012121;28;25079;-68
2023/07/29 13:14:12;;;;;;;2.85;1.17;;;;;;;;;;5014215;28;25112;-67
2023/07/29 13:16:37;;;;;;;1.67;1.52;;;;;;;;;;5009155;28;25072;-66
2023/07/29 13:19:03;;;;;;;4.07;1.52;;;;;;;;;;5000620;28;25049;-66
2023/07/29 13:21:29;;;;;;;2.42;1.50;;;;;;;;;;5002684;28;25062;-67
2023/07/29 13:23:55;;;;;;;5.38;1.67;;;;;;;;;;5012804;28;25099;-67
2023/07/29 13:26:21;;;;;;;3.22;1.88;;;;;;;;;;5008090;28;25085;-65
2023/07/29 13:28:47;;;;;;;4.28;1.45;;;;;;;;;;5004691;28;25075;-65
2023/07/29 13:31:13;;;;;;;4.90;1.98;;;;;;;;;;4998739;28;25072;-67
2023/07/29 13:33:39;;;;;;;1.75;1.15;;;;;;;;;;5008878;28;25075;-66
2023/07/29 13:36:08;;;;;;;1.23;1.13;;;;;;;;;;5012714;28;25085;-66
2023/07/29 13:38:34;;;;;;;2.70;1.00;;;;;;;;;;5022480;28;25169;-67
2023/07/29 13:40:59;;;;;;;2.72;0.90;;;;;;;;;;5011989;28;25148;-65
2023/07/29 13:43:26;;;;;;;1.38;1.00;;;;;;;;;;5009983;28;25053;-67
2023/07/29 13:45:51;;;;;;;2.38;1.42;;;;;;;;;;5014842;28;25140;-68
2023/07/29 13:48:18;;;;;;;1.05;0.95;;;;;;;;;;5006407;28;25074;-64
2023/07/29 13:50:44;;;;;;;0.93;0.80;;;;;;;;;;5014155;28;25062;-65
2023/07/29 13:53:10;;;;;;;1.48;0.88;;;;;;;;;;5009191;28;25068;-67
2023/07/29 13:55:36;;;;;;;4.20;1.10;;;;;;;;;;5014943;28;25063;-64
2023/07/29 13:58:02;;;;;;;2.65;1.02;;;;;;;;;;5014870;28;25068;-68
2023/07/29 14:00:28;;;;;;;2.67;0.80;;;;;;;;;;5004925;28;25089;-67
2023/07/29 14:02:54;;;;;;;4.15;1.00;;;;;;;;;;5012839;28;25085;-68
2023/07/29 14:05:20;;;;;;;2.20;1.10;;;;;;;;;;5012352;28;25068;-67
2023/07/29 14:07:46;;;;;;;1.92;0.88;;;;;;;;;;5010779;28;25067;-64
2023/07/29 14:10:12;;;;;;;2.30;1.00;;;;;;;;;;4996391;28;25126;-63
2023/07/29 14:12:38;;;;;;;2.72;1.10;;;;;;;;;;4998553;28;25083;-68
2023/07/29 14:15:06;;;;;;;4.32;1.08;;;;;;;;;;5004440;28;25049;-68
2023/07/29 14:17:32;;;;;;;3.95;1.20;;;;;;;;;;5006713;28;25131;-68
2023/07/29 14:19:58;;;;;;;2.90;1.13;;;;;;;;;;4996611;28;25073;-66
2023/07/29 14:22:24;;;;;;;1.83;1.30;;;;;;;;;;4999965;28;25068;-67
2023/07/29 14:24:50;;;;;;;3.55;1.27;;;;;;;;;;5008246;28;25086;-68
2023/07/29 14:27:16;;;;;;;3.08;1.60;;;;;;;;;;4998845;28;25081;-66
2023/07/29 14:29:42;;;;;;;3.63;1.92;;;;;;;;;;5017459;28;25049;-70
2023/07/29 14:32:08;;;;;;;3.67;1.70;;;;;;;;;;5006124;28;25066;-68
2023/07/29 14:34:34;;;;;;;3.67;2.00;;;;;;;;;;5004823;28;25096;-66
2023/07/29 14:37:00;;;;;;;2.95;1.60;;;;;;;;;;5008191;28;25139;-67
2023/07/29 14:39:26;;;;;;;6.07;2.10;;;;;;;;;;5002173;28;25053;-67
2023/07/29 14:41:52;;;;;;;2.30;1.92;;;;;;;;;;4998279;28;25154;-67